Time;durP1;ratioP1;P1;durP2;ratioP2;P2;SDS_P1;SDS_P2;PMS_P1;PMS_P2;Temp;Humidity;BMP_temperature;BMP_pressure;BME280_temperature;BME280_humidity;BME280_pressure;Samples;Min_cycle;Max_cycle;Signal;HPM_P1;HPM_P2
2022/06/30 00:01:00;;;;;;;14.45;11.38;;;18.30;99.90;;;;;;5116688;28;20517;-67
2022/06/30 00:03:25;;;;;;;14.57;12.30;;;18.30;99.90;;;;;;5116322;28;20176;-67
2022/06/30 00:05:51;;;;;;;15.27;12.23;;;18.30;99.90;;;;;;5116429;28;20171;-67
2022/06/30 00:08:17;;;;;;;18.63;12.95;;;18.30;99.90;;;;;;5115961;28;20203;-67
2022/06/30 00:10:43;;;;;;;14.73;11.95;;;18.20;99.90;;;;;;5116122;28;20169;-67
2022/06/30 00:13:09;;;;;;;15.15;12.23;;;18.20;99.90;;;;;;5114874;28;20667;-67
2022/06/30 00:15:37;;;;;;;13.30;11.65;;;18.20;99.90;;;;;;5114634;28;20195;-67
2022/06/30 00:18:03;;;;;;;14.48;12.20;;;18.10;99.90;;;;;;5116599;27;20177;-67
2022/06/30 00:20:29;;;;;;;15.77;13.18;;;18.10;99.90;;;;;;5115914;28;20185;-67
2022/06/30 00:22:54;;;;;;;16.08;13.05;;;18.10;99.90;;;;;;5115793;28;20161;-67
2022/06/30 00:25:20;;;;;;;15.32;12.50;;;18.00;99.90;;;;;;5116523;28;20617;-67
2022/06/30 00:27:46;;;;;;;14.50;12.85;;;18.00;99.90;;;;;;5115821;28;20200;-67
2022/06/30 00:30:12;;;;;;;15.55;13.05;;;18.00;99.90;;;;;;5115635;27;20213;-67
2022/06/30 00:32:38;;;;;;;15.73;12.27;;;17.90;99.90;;;;;;5115824;28;20255;-67
2022/06/30 00:35:04;;;;;;;16.27;12.27;;;17.80;99.90;;;;;;5115983;28;20207;-67
2022/06/30 00:37:30;;;;;;;14.77;11.98;;;17.80;99.90;;;;;;5115465;28;20677;-67
2022/06/30 00:39:55;;;;;;;13.85;11.88;;;17.80;99.90;;;;;;5115605;28;20221;-67
2022/06/30 00:42:22;;;;;;;15.40;12.32;;;17.70;99.90;;;;;;5115566;28;20172;-67
2022/06/30 00:44:47;;;;;;;14.05;12.07;;;17.70;99.90;;;;;;5115746;27;20183;-67
2022/06/30 00:47:13;;;;;;;14.55;12.45;;;17.70;99.90;;;;;;5115388;28;20188;-67
2022/06/30 00:49:40;;;;;;;15.20;12.57;;;17.60;99.90;;;;;;5115455;28;20669;-67
2022/06/30 00:52:09;;;;;;;15.48;13.27;;;17.70;99.90;;;;;;5115171;28;20523;-67
2022/06/30 00:54:36;;;;;;;16.60;13.20;;;17.60;99.90;;;;;;5115255;28;20184;-67
2022/06/30 00:57:03;;;;;;;18.40;13.73;;;17.60;99.90;;;;;;5115113;28;20204;-67
2022/06/30 00:59:32;;;;;;;15.63;12.23;;;17.60;99.90;;;;;;5113847;28;20176;-67
2022/06/30 01:02:00;;;;;;;14.02;12.02;;;17.60;99.90;;;;;;5115411;28;20164;-67
2022/06/30 01:04:29;;;;;;;15.00;13.30;;;17.60;99.90;;;;;;5115400;28;20172;-67
2022/06/30 01:06:57;;;;;;;15.45;13.32;;;17.60;99.90;;;;;;5114778;28;20185;-67
2022/06/30 01:14:54;;;;;;;15.20;11.52;;;17.60;99.90;;;;;;5115033;28;20214;-67
2022/06/30 01:17:20;;;;;;;16.63;12.43;;;17.50;99.90;;;;;;5114794;28;20688;-67
2022/06/30 01:19:56;;;;;;;13.80;11.65;;;17.50;99.90;;;;;;5113476;28;20180;-67
2022/06/30 01:22:22;;;;;;;13.60;11.95;;;17.50;99.90;;;;;;5113242;28;20194;-67
2022/06/30 01:24:48;;;;;;;14.07;11.80;;;17.40;99.90;;;;;;5114725;28;20176;-67
2022/06/30 01:27:14;;;;;;;14.77;11.50;;;17.40;99.90;;;;;;5114591;28;20197;-67
2022/06/30 01:29:40;;;;;;;13.95;10.70;;;17.30;99.90;;;;;;5114883;28;20250;-67
2022/06/30 01:32:06;;;;;;;14.77;10.88;;;17.30;99.90;;;;;;5113311;28;20188;-67
2022/06/30 01:34:32;;;;;;;14.48;12.48;;;17.20;99.90;;;;;;5114423;28;20704;-67
2022/06/30 01:36:59;;;;;;;15.65;11.20;;;17.30;99.90;;;;;;5114059;28;20292;-67
2022/06/30 01:39:25;;;;;;;14.25;11.95;;;17.30;99.90;;;;;;5113146;28;20173;-67
2022/06/30 01:41:51;;;;;;;15.27;12.77;;;17.20;99.90;;;;;;5113839;28;20173;-67
2022/06/30 01:44:17;;;;;;;16.58;13.00;;;17.20;99.90;;;;;;5114381;28;20184;-67
2022/06/30 01:46:47;;;;;;;13.98;12.10;;;17.10;99.90;;;;;;5112996;28;20204;-67
2022/06/30 01:49:13;;;;;;;16.27;12.77;;;17.10;99.90;;;;;;5114214;28;20184;-67
2022/06/30 01:51:39;;;;;;;19.02;13.23;;;17.00;99.90;;;;;;5112970;28;20205;-67
2022/06/30 01:54:06;;;;;;;16.38;12.38;;;17.00;99.90;;;;;;5112716;28;20667;-67
2022/06/30 01:56:32;;;;;;;14.30;11.93;;;17.00;99.90;;;;;;5114032;28;20205;-67
2022/06/30 01:58:57;;;;;;;14.57;11.73;;;16.90;99.90;;;;;;5114252;28;20176;-67
2022/06/30 02:01:23;;;;;;;13.60;11.35;;;16.90;99.90;;;;;;5114142;28;20165;-67
2022/06/30 02:03:49;;;;;;;17.23;12.40;;;16.90;99.90;;;;;;5114093;28;20170;-67
2022/06/30 02:06:15;;;;;;;14.80;13.02;;;16.90;99.90;;;;;;5112737;28;20283;-67
2022/06/30 02:08:40;;;;;;;16.23;12.93;;;16.90;99.90;;;;;;5113872;28;20255;-67
2022/06/30 02:11:06;;;;;;;16.40;13.23;;;16.80;99.90;;;;;;5112810;28;20192;-67
2022/06/30 02:13:32;;;;;;;19.52;12.90;;;16.80;99.90;;;;;;5114043;28;20536;-67
2022/06/30 02:15:57;;;;;;;16.60;13.38;;;16.70;99.90;;;;;;5113821;28;20865;-67
2022/06/30 02:18:24;;;;;;;16.52;13.50;;;16.70;99.90;;;;;;5112669;28;20633;-67
2022/06/30 02:20:49;;;;;;;16.50;13.63;;;16.70;99.90;;;;;;5112647;28;20176;-67
2022/06/30 02:23:15;;;;;;;15.80;13.43;;;16.80;99.90;;;;;;5113706;28;20189;-67
2022/06/30 02:25:42;;;;;;;21.05;13.93;;;16.70;99.90;;;;;;5113760;28;20200;-67
2022/06/30 02:28:08;;;;;;;15.77;13.23;;;16.70;99.90;;;;;;5112597;28;20222;-67
2022/06/30 02:30:35;;;;;;;17.38;14.15;;;16.70;99.90;;;;;;5114585;28;20176;-67
2022/06/30 02:33:01;;;;;;;19.08;13.60;;;16.60;99.90;;;;;;5112734;28;20225;-67
2022/06/30 02:35:27;;;;;;;20.25;15.00;;;16.60;99.90;;;;;;5113795;28;20176;-67
2022/06/30 02:37:53;;;;;;;16.90;12.73;;;16.60;99.90;;;;;;5113630;28;20670;-67
2022/06/30 02:40:19;;;;;;;15.60;13.40;;;16.50;99.90;;;;;;5113899;28;20179;-67
2022/06/30 02:42:46;;;;;;;17.48;12.52;;;16.50;99.90;;;;;;5112580;28;20168;-67
2022/06/30 02:45:12;;;;;;;14.75;12.10;;;16.50;99.90;;;;;;5113870;28;20171;-67
2022/06/30 02:47:43;;;;;;;14.57;11.57;;;16.40;99.90;;;;;;5113690;28;20196;-67
2022/06/30 02:50:11;;;;;;;14.75;12.30;;;16.30;99.90;;;;;;5113742;28;20183;-67
2022/06/30 02:52:37;;;;;;;12.65;10.90;;;16.20;99.90;;;;;;5113642;28;20172;-67
2022/06/30 02:55:04;;;;;;;16.33;11.77;;;16.20;99.90;;;;;;5116454;28;20522;-67
2022/06/30 02:57:30;;;;;;;15.25;10.85;;;16.20;99.90;;;;;;5116427;28;20228;-67
2022/06/30 02:59:56;;;;;;;14.25;11.73;;;16.20;99.90;;;;;;5118239;28;20179;-67
2022/06/30 03:02:22;;;;;;;17.67;12.38;;;16.10;99.90;;;;;;5117935;28;20252;-67
2022/06/30 03:04:48;;;;;;;13.93;12.13;;;16.10;99.90;;;;;;5117688;28;20260;-67
2022/06/30 03:07:14;;;;;;;15.85;12.05;;;16.10;99.90;;;;;;5117570;28;20228;-67
2022/06/30 03:09:40;;;;;;;14.52;12.32;;;16.10;99.90;;;;;;5118093;28;20168;-67
2022/06/30 03:12:06;;;;;;;17.88;12.38;;;16.10;99.90;;;;;;5118376;28;20185;-67
2022/06/30 03:14:32;;;;;;;15.05;12.43;;;16.00;99.90;;;;;;5118610;28;20709;-67
2022/06/30 03:16:58;;;;;;;21.95;14.07;;;16.00;99.90;;;;;;5119994;28;20200;-67
2022/06/30 03:19:24;;;;;;;17.60;14.02;;;16.00;99.90;;;;;;5117840;28;20188;-67
2022/06/30 03:21:53;;;;;;;20.25;13.18;;;15.90;99.90;;;;;;5117963;28;20177;-67
2022/06/30 03:24:19;;;;;;;19.50;13.88;;;16.00;99.90;;;;;;5116159;28;20541;-67
2022/06/30 03:26:46;;;;;;;16.27;12.75;;;16.00;99.90;;;;;;5117225;28;20272;-67
2022/06/30 03:29:11;;;;;;;18.67;13.73;;;16.00;99.90;;;;;;5117160;28;20669;-67
2022/06/30 03:31:37;;;;;;;17.25;12.65;;;16.00;99.90;;;;;;5117690;28;20184;-66
2022/06/30 03:34:03;;;;;;;17.30;13.48;;;15.90;99.90;;;;;;5117265;28;20261;-66
2022/06/30 03:36:29;;;;;;;17.40;13.10;;;16.00;99.90;;;;;;5116977;28;20212;-66
2022/06/30 03:38:55;;;;;;;19.90;13.40;;;16.00;99.90;;;;;;5117155;28;20172;-64
2022/06/30 03:41:21;;;;;;;17.88;13.32;;;16.00;99.90;;;;;;5115762;28;20703;-64
2022/06/30 03:43:46;;;;;;;16.25;14.15;;;16.00;99.90;;;;;;5116868;28;20196;-65
2022/06/30 03:46:12;;;;;;;18.52;15.02;;;16.00;99.90;;;;;;5115414;28;20203;-65
2022/06/30 03:48:41;;;;;;;21.55;15.60;;;16.00;99.90;;;;;;5117244;28;20270;-68
2022/06/30 03:51:07;;;;;;;24.55;15.00;;;16.10;99.90;;;;;;5115613;28;20594;-69
2022/06/30 03:53:33;;;;;;;17.67;14.43;;;16.10;99.90;;;;;;5116917;28;20252;-68
2022/06/30 03:55:59;;;;;;;17.65;14.50;;;16.10;99.90;;;;;;5116966;28;20576;-68
2022/06/30 03:58:24;;;;;;;22.40;15.30;;;16.10;99.90;;;;;;5116664;28;20169;-68
2022/06/30 04:00:50;;;;;;;19.45;14.80;;;16.00;99.90;;;;;;5116523;28;20255;-68
2022/06/30 04:03:16;;;;;;;19.13;13.57;;;16.00;99.90;;;;;;5116512;28;20698;-68
2022/06/30 04:05:42;;;;;;;18.58;13.55;;;16.10;99.90;;;;;;5115739;28;20229;-68
2022/06/30 04:08:08;;;;;;;15.38;13.05;;;16.00;99.90;;;;;;5116546;27;20160;-69
2022/06/30 04:10:34;;;;;;;16.58;13.75;;;16.00;99.90;;;;;;5116825;28;20179;-68
2022/06/30 04:13:00;;;;;;;17.40;12.60;;;16.00;99.90;;;;;;5116320;28;20177;-69
2022/06/30 04:15:27;;;;;;;15.68;13.15;;;16.00;99.90;;;;;;5116371;28;20665;-69
2022/06/30 04:17:53;;;;;;;16.60;12.90;;;15.90;99.90;;;;;;5114731;28;20599;-68
2022/06/30 04:20:19;;;;;;;15.93;12.80;;;15.80;99.90;;;;;;5116280;28;20259;-69
2022/06/30 04:22:50;;;;;;;14.43;12.15;;;15.70;99.90;;;;;;5116188;28;20500;-68
2022/06/30 04:25:17;;;;;;;16.55;11.63;;;15.80;99.90;;;;;;5116054;28;20633;-69
2022/06/30 04:27:48;;;;;;;17.60;12.82;;;15.80;99.90;;;;;;5116045;28;20203;-68
2022/06/30 04:30:15;;;;;;;16.55;12.18;;;15.90;99.90;;;;;;5116093;28;20161;-68
2022/06/30 04:32:42;;;;;;;17.38;13.40;;;16.00;99.90;;;;;;5114651;28;20225;-69
2022/06/30 04:35:11;;;;;;;15.95;11.88;;;16.00;99.90;;;;;;5115906;28;20172;-68
2022/06/30 04:37:37;;;;;;;17.73;13.25;;;16.10;99.90;;;;;;5114234;28;20258;-68
2022/06/30 04:42:48;;;;;;;13.60;11.85;;;16.20;99.90;;;;;;5116116;28;20581;-68
2022/06/30 04:45:13;;;;;;;16.95;12.35;;;16.30;99.90;;;;;;5116288;28;20169;-69
2022/06/30 04:47:39;;;;;;;14.48;12.10;;;16.40;99.90;;;;;;5116218;28;20220;-68
2022/06/30 04:50:06;;;;;;;16.40;12.52;;;16.40;99.90;;;;;;5115487;28;20190;-69
2022/06/30 04:52:33;;;;;;;17.13;12.57;;;16.50;99.90;;;;;;5114010;28;20187;-67
2022/06/30 04:54:59;;;;;;;16.00;11.73;;;16.60;99.90;;;;;;5115515;28;20173;-69
2022/06/30 04:57:25;;;;;;;17.58;14.35;;;16.60;99.90;;;;;;5114094;28;20257;-68
2022/06/30 04:59:51;;;;;;;18.42;13.50;;;16.70;99.90;;;;;;5115487;28;20172;-68
2022/06/30 05:02:17;;;;;;;17.63;14.02;;;16.80;99.90;;;;;;5115432;28;20168;-69
2022/06/30 05:04:43;;;;;;;19.85;14.15;;;16.90;99.90;;;;;;5116148;28;20179;-68
2022/06/30 05:07:09;;;;;;;17.58;13.98;;;16.90;99.90;;;;;;5117461;28;20196;-68
2022/06/30 05:09:35;;;;;;;22.42;15.57;;;17.00;99.90;;;;;;5115811;28;20173;-68
2022/06/30 05:12:02;;;;;;;22.33;15.43;;;17.10;99.90;;;;;;5115679;28;20179;-69
2022/06/30 05:14:27;;;;;;;21.40;16.13;;;17.10;99.90;;;;;;5116330;28;20182;-69
2022/06/30 05:16:53;;;;;;;23.63;16.10;;;17.20;99.90;;;;;;5115110;28;20216;-68
2022/06/30 05:19:19;;;;;;;19.17;15.85;;;17.20;99.90;;;;;;5115678;28;20184;-68
2022/06/30 05:21:44;;;;;;;18.63;15.82;;;17.30;99.90;;;;;;5115677;28;20169;-68
2022/06/30 05:26:54;;;;;;;22.10;15.95;;;17.50;99.90;;;;;;5115218;28;20246;-68
2022/06/30 05:29:20;;;;;;;19.63;14.48;;;17.60;99.90;;;;;;5115035;28;20181;-68
2022/06/30 05:31:46;;;;;;;26.00;16.95;;;17.70;99.90;;;;;;5114829;28;20219;-68
2022/06/30 05:34:11;;;;;;;21.38;17.23;;;17.80;99.90;;;;;;5113479;28;20267;-68
2022/06/30 05:36:37;;;;;;;23.17;16.05;;;17.90;99.90;;;;;;5114723;28;20208;-68
2022/06/30 05:39:03;;;;;;;23.90;17.23;;;18.00;99.90;;;;;;5113020;28;20716;-68
2022/06/30 05:41:28;;;;;;;21.60;16.88;;;18.10;99.90;;;;;;5114538;28;20164;-68
2022/06/30 05:43:54;;;;;;;20.73;17.05;;;18.20;99.90;;;;;;5114561;28;20653;-68
2022/06/30 05:46:20;;;;;;;22.23;15.63;;;18.30;99.90;;;;;;5114164;28;20189;-68
2022/06/30 05:48:52;;;;;;;24.42;16.38;;;18.40;99.90;;;;;;5113125;28;20626;-68
2022/06/30 05:51:19;;;;;;;22.92;16.83;;;18.50;99.90;;;;;;5113055;28;20172;-68
2022/06/30 05:53:47;;;;;;;26.73;19.02;;;18.60;99.90;;;;;;5114048;28;20175;-69
2022/06/30 05:56:18;;;;;;;29.55;19.13;;;18.70;99.90;;;;;;5114089;28;20212;-68
2022/06/30 05:58:45;;;;;;;25.35;17.50;;;18.80;99.90;;;;;;5114048;28;20191;-68
2022/06/30 06:01:13;;;;;;;22.45;16.60;;;18.90;99.90;;;;;;5114298;28;20200;-68
2022/06/30 06:03:39;;;;;;;20.83;16.15;;;19.00;99.90;;;;;;5112876;28;20267;-67
2022/06/30 06:06:07;;;;;;;24.42;18.63;;;19.10;99.90;;;;;;5112583;28;20227;-68
2022/06/30 06:08:33;;;;;;;20.25;15.20;;;19.20;99.90;;;;;;5112726;28;20176;-67
2022/06/30 06:11:01;;;;;;;20.48;15.15;;;19.30;99.90;;;;;;5114480;28;20637;-67
2022/06/30 06:13:31;;;;;;;17.55;14.40;;;19.50;99.90;;;;;;5096059;28;20249;-67
2022/06/30 06:15:59;;;;;;;20.52;16.23;;;19.60;99.90;;;;;;5113823;28;20271;-68
2022/06/30 06:18:27;;;;;;;21.00;15.40;;;19.70;99.90;;;;;;5114064;28;20191;-68
2022/06/30 06:20:57;;;;;;;17.55;14.50;;;19.80;99.90;;;;;;5114325;28;20208;-68
2022/06/30 06:23:27;;;;;;;18.13;14.82;;;19.90;99.90;;;;;;5114001;28;20176;-69
2022/06/30 06:25:53;;;;;;;17.02;15.23;;;20.00;99.90;;;;;;5095851;28;20226;-68
2022/06/30 06:31:12;;;;;;;19.65;15.43;;;20.10;99.90;;;;;;5114076;28;20236;-69
2022/06/30 06:33:43;;;;;;;16.20;14.40;;;20.20;99.90;;;;;;5114279;28;20236;-69
2022/06/30 06:36:12;;;;;;;16.98;13.98;;;20.30;99.90;;;;;;5096883;28;20669;-69
2022/06/30 06:38:40;;;;;;;15.95;14.25;;;20.40;99.90;;;;;;5112661;28;20184;-68
2022/06/30 06:41:08;;;;;;;16.10;14.43;;;20.50;99.90;;;;;;5114292;28;20652;-69
2022/06/30 06:43:34;;;;;;;17.05;14.15;;;20.60;99.90;;;;;;5113043;28;20172;-69
2022/06/30 06:46:02;;;;;;;17.05;14.50;;;20.70;99.90;;;;;;5112561;28;20251;-69
2022/06/30 06:48:28;;;;;;;16.05;14.40;;;20.80;99.90;;;;;;5112690;28;20194;-68
2022/06/30 06:50:54;;;;;;;15.68;14.05;;;20.90;99.90;;;;;;5112827;28;20168;-69
2022/06/30 06:53:20;;;;;;;15.40;13.70;;;20.90;99.90;;;;;;5112525;28;20180;-68
2022/06/30 06:55:47;;;;;;;19.08;15.25;;;21.00;99.90;;;;;;5112546;28;20182;-69
2022/06/30 06:58:15;;;;;;;18.33;14.90;;;21.10;99.90;;;;;;5113736;28;20212;-69
2022/06/30 07:00:42;;;;;;;17.73;13.70;;;21.20;99.90;;;;;;5112632;28;20637;-69
2022/06/30 07:03:08;;;;;;;18.35;15.18;;;21.30;99.90;;;;;;5112383;28;20184;-69
2022/06/30 07:05:35;;;;;;;15.50;13.85;;;21.40;99.90;;;;;;5113575;28;20192;-69
2022/06/30 07:08:01;;;;;;;15.73;14.07;;;21.50;99.90;;;;;;5113579;28;20188;-68
2022/06/30 07:10:28;;;;;;;18.10;15.18;;;21.60;99.90;;;;;;5112260;28;20219;-69
2022/06/30 07:12:56;;;;;;;14.18;12.68;;;21.70;99.90;;;;;;5112585;28;20626;-69
2022/06/30 07:15:25;;;;;;;15.18;12.43;;;21.80;99.90;;;;;;5112035;28;20188;-69
2022/06/30 07:17:53;;;;;;;15.75;13.02;;;21.90;99.90;;;;;;5111878;28;20223;-69
2022/06/30 07:20:22;;;;;;;15.95;12.73;;;22.00;99.90;;;;;;5112389;28;20656;-69
2022/06/30 07:22:48;;;;;;;15.57;13.50;;;22.20;99.90;;;;;;5112216;28;20192;-69
2022/06/30 07:25:14;;;;;;;14.70;12.73;;;22.20;99.90;;;;;;5113251;28;20169;-69
2022/06/30 07:27:40;;;;;;;18.90;13.10;;;22.30;99.90;;;;;;5112041;28;20283;-69
2022/06/30 07:30:07;;;;;;;16.42;12.32;;;22.40;99.90;;;;;;5113410;28;20180;-69
2022/06/30 07:32:36;;;;;;;16.65;12.98;;;22.50;99.90;;;;;;5112121;28;20214;-69
2022/06/30 07:35:03;;;;;;;14.02;12.45;;;22.60;99.90;;;;;;5112012;28;20179;-69
2022/06/30 07:37:29;;;;;;;13.52;12.13;;;22.70;99.90;;;;;;5111816;28;20204;-69
2022/06/30 07:39:55;;;;;;;14.45;12.48;;;22.80;99.90;;;;;;5112458;28;20180;-69
2022/06/30 07:42:21;;;;;;;14.27;11.27;;;22.90;99.90;;;;;;5115718;28;20177;-69
2022/06/30 07:44:47;;;;;;;12.88;10.95;;;22.90;99.90;;;;;;5115781;28;20173;-69
2022/06/30 07:47:13;;;;;;;14.00;10.95;;;23.10;99.90;;;;;;5116856;28;20713;-69
2022/06/30 07:49:40;;;;;;;13.50;10.35;;;23.20;99.90;;;;;;5115464;28;20271;-69
2022/06/30 07:52:06;;;;;;;12.25;9.85;;;23.30;99.90;;;;;;5115602;28;20233;-69
2022/06/30 07:54:33;;;;;;;13.68;10.20;;;23.40;99.90;;;;;;5115126;28;20180;-69
2022/06/30 07:57:00;;;;;;;11.48;9.05;;;23.40;99.90;;;;;;5116571;28;20200;-69
2022/06/30 07:59:37;;;;;;;9.80;8.43;;;23.60;99.90;;;;;;5115383;27;20175;-69
2022/06/30 08:02:03;;;;;;;10.45;9.32;;;23.70;99.90;;;;;;5115465;28;20259;-69
2022/06/30 08:04:30;;;;;;;12.38;9.02;;;23.90;99.90;;;;;;5116681;28;20176;-69
2022/06/30 08:07:08;;;;;;;10.25;8.60;;;24.00;99.90;;;;;;5115197;28;20244;-69
2022/06/30 08:09:35;;;;;;;10.40;8.13;;;24.10;99.90;;;;;;5116316;28;20157;-69
2022/06/30 08:12:02;;;;;;;14.05;8.40;;;24.30;99.90;;;;;;5116363;28;20179;-69
2022/06/30 08:14:28;;;;;;;9.02;7.47;;;24.40;99.90;;;;;;5114988;28;20176;-69
2022/06/30 08:17:01;;;;;;;13.40;7.45;;;24.60;99.90;;;;;;5114944;28;20296;-69
2022/06/30 08:19:28;;;;;;;9.02;7.43;;;24.60;99.90;;;;;;5114825;28;20233;-69
2022/06/30 08:21:57;;;;;;;9.75;6.63;;;24.70;99.90;;;;;;5114830;28;20176;-69
2022/06/30 08:24:24;;;;;;;9.48;7.55;;;24.80;99.90;;;;;;5114684;27;20173;-69
2022/06/30 08:26:52;;;;;;;8.90;6.45;;;24.90;99.90;;;;;;5115880;28;20200;-69
2022/06/30 08:29:18;;;;;;;8.40;6.93;;;25.00;99.90;;;;;;5116012;28;20177;-70
2022/06/30 08:31:45;;;;;;;9.85;7.20;;;25.10;99.90;;;;;;5115607;28;20184;-70
2022/06/30 08:34:11;;;;;;;10.10;7.30;;;25.20;99.90;;;;;;5114658;28;20164;-69
2022/06/30 08:36:40;;;;;;;7.97;6.45;;;25.40;99.90;;;;;;5114394;28;20303;-70
2022/06/30 08:42:02;;;;;;;7.95;6.22;;;25.50;99.90;;;;;;5115818;27;20700;-69
2022/06/30 08:42:03;;;;;;;9.75;6.30;;;25.70;99.90;;;;;;5115921;28;20206;-69
2022/06/30 08:44:33;;;;;;;7.18;5.05;;;25.80;99.90;;;;;;5114543;28;20213;-70
2022/06/30 08:47:05;;;;;;;6.18;4.78;;;25.90;99.90;;;;;;5115726;27;20200;-69
2022/06/30 08:49:31;;;;;;;6.90;4.50;;;26.00;99.90;;;;;;5114449;28;20188;-69
2022/06/30 08:52:02;;;;;;;7.47;4.60;;;26.10;99.90;;;;;;5115340;28;20267;-69
2022/06/30 08:54:31;;;;;;;8.70;5.22;;;26.20;99.90;;;;;;5115441;28;20621;-69
2022/06/30 08:57:00;;;;;;;6.95;5.05;;;26.40;99.90;;;;;;5114394;28;20234;-69
2022/06/30 08:59:27;;;;;;;8.50;5.50;;;26.60;99.90;;;;;;5114516;28;20215;-69
2022/06/30 09:01:57;;;;;;;8.80;5.65;;;26.60;99.90;;;;;;5115686;28;20247;-67
2022/06/30 09:04:23;;;;;;;8.82;5.07;;;26.60;99.90;;;;;;5115314;28;20565;-69
2022/06/30 09:07:02;;;;;;;7.47;4.50;;;26.70;99.90;;;;;;5115068;28;20242;-69
2022/06/30 09:09:34;;;;;;;5.97;4.50;;;26.80;99.90;;;;;;5113804;28;20231;-69
2022/06/30 09:12:02;;;;;;;5.97;4.57;;;26.90;99.90;;;;;;5114122;28;20180;-67
2022/06/30 09:14:47;;;;;;;5.53;4.03;;;27.00;99.90;;;;;;5114123;28;20188;-67
2022/06/30 09:17:20;;;;;;;7.60;4.55;;;27.30;99.90;;;;;;5114936;28;20212;-69
2022/06/30 09:19:57;;;;;;;4.95;3.80;;;27.50;99.90;;;;;;5113785;28;20230;-69
2022/06/30 09:22:34;;;;;;;4.50;3.67;;;27.70;99.90;;;;;;5114035;28;20207;-69
2022/06/30 09:25:11;;;;;;;5.38;3.90;;;27.80;99.90;;;;;;5113269;28;20213;-70
2022/06/30 09:27:47;;;;;;;7.18;4.05;;;27.90;99.90;;;;;;5115115;28;20204;-69
2022/06/30 09:30:23;;;;;;;3.95;3.38;;;28.20;99.90;;;;;;5097395;28;20250;-70
2022/06/30 09:33:02;;;;;;;7.22;3.80;;;28.30;99.90;;;;;;5113908;28;20309;-69
2022/06/30 09:35:30;;;;;;;5.32;3.65;;;28.50;99.90;;;;;;5097692;28;20292;-69
2022/06/30 09:38:12;;;;;;;4.88;3.80;;;28.50;99.90;;;;;;5113554;28;20205;-71
2022/06/30 09:41:02;;;;;;;6.28;3.67;;;28.60;99.90;;;;;;5113571;28;20192;-70
2022/06/30 09:43:36;;;;;;;4.78;4.28;;;28.70;99.90;;;;;;5115345;28;20189;-70
2022/06/30 09:46:05;;;;;;;5.18;3.97;;;28.80;99.90;;;;;;5115330;28;20603;-70
2022/06/30 09:48:39;;;;;;;4.65;3.72;;;28.60;99.90;;;;;;5113340;28;20524;-70
2022/06/30 09:51:06;;;;;;;5.50;4.28;;;28.60;99.90;;;;;;5115001;28;20525;-70
2022/06/30 09:53:33;;;;;;;5.88;4.00;;;28.70;99.90;;;;;;5114675;28;20183;-69
2022/06/30 09:56:13;;;;;;;5.47;3.78;;;28.80;99.90;;;;;;5114233;27;20176;-70
2022/06/30 09:58:43;;;;;;;4.95;4.10;;;28.70;99.90;;;;;;5113963;28;20176;-69
2022/06/30 10:01:12;;;;;;;3.92;3.35;;;28.40;99.90;;;;;;5114348;28;20168;-68
2022/06/30 10:04:10;;;;;;;6.85;4.10;;;28.60;99.90;;;;;;5114669;28;20184;-69
2022/06/30 10:06:38;;;;;;;5.38;3.85;;;28.40;99.90;;;;;;5113574;28;20548;-66
2022/06/30 10:09:08;;;;;;;5.28;3.58;;;28.30;99.90;;;;;;5114361;28;20195;-66
2022/06/30 10:11:36;;;;;;;5.75;3.58;;;28.40;99.90;;;;;;5113022;28;20547;-66
2022/06/30 10:14:04;;;;;;;5.32;4.22;;;28.50;99.90;;;;;;5113017;28;20188;-68
2022/06/30 10:16:34;;;;;;;4.78;3.50;;;28.50;99.90;;;;;;5114211;28;20707;-68
2022/06/30 10:19:03;;;;;;;5.97;3.90;;;28.30;99.90;;;;;;5114170;28;20195;-68
2022/06/30 10:21:29;;;;;;;5.88;3.67;;;28.00;99.90;;;;;;5113057;28;20185;-68
2022/06/30 10:23:58;;;;;;;6.53;3.95;;;27.70;99.90;;;;;;5113854;28;20179;-67
2022/06/30 10:29:18;;;;;;;8.93;4.13;;;27.40;99.90;;;;;;5115179;28;20213;-68
2022/06/30 10:32:06;;;;;;;5.63;3.70;;;27.40;99.90;;;;;;5114979;28;20159;-68
2022/06/30 10:34:51;;;;;;;5.22;3.17;;;27.60;99.90;;;;;;5111081;28;20183;-68
2022/06/30 10:37:35;;;;;;;5.43;3.30;;;27.70;99.90;;;;;;5111154;28;20212;-68
2022/06/30 10:40:31;;;;;;;4.82;3.58;;;27.80;99.90;;;;;;5113070;28;20665;-69
2022/06/30 10:43:05;;;;;;;5.13;3.45;;;27.70;99.90;;;;;;5100013;28;20750;-68
2022/06/30 10:45:31;;;;;;;5.93;3.80;;;27.50;99.90;;;;;;5113277;28;20658;-68
2022/06/30 10:47:59;;;;;;;3.80;3.30;;;27.40;99.90;;;;;;5114540;28;20216;-68
2022/06/30 10:50:36;;;;;;;6.57;3.63;;;27.30;99.90;;;;;;5112716;28;20195;-68
2022/06/30 10:53:20;;;;;;;4.05;3.40;;;27.20;99.90;;;;;;5114153;28;20237;-68
2022/06/30 10:55:59;;;;;;;4.60;3.45;;;27.30;99.90;;;;;;5112457;28;20160;-68
2022/06/30 10:58:31;;;;;;;5.28;3.53;;;27.70;99.90;;;;;;5114020;28;20517;-68
2022/06/30 11:01:05;;;;;;;4.78;3.28;;;28.20;99.90;;;;;;5112724;28;20720;-68
2022/06/30 11:03:37;;;;;;;7.30;3.75;;;28.60;99.90;;;;;;5112688;28;20564;-68
2022/06/30 11:06:13;;;;;;;4.68;3.72;;;28.80;99.90;;;;;;5113465;28;20345;-68
2022/06/30 11:08:48;;;;;;;4.45;3.33;;;28.60;99.90;;;;;;5112939;28;20187;-68
2022/06/30 11:11:20;;;;;;;3.50;3.20;;;28.70;99.90;;;;;;5112585;28;20189;-68
2022/06/30 11:13:50;;;;;;;6.05;3.58;;;29.00;99.90;;;;;;5112328;28;20180;-68
2022/06/30 11:16:19;;;;;;;4.75;3.22;;;29.30;99.90;;;;;;5115292;28;20592;-68
2022/06/30 11:18:51;;;;;;;5.13;3.35;;;29.50;99.90;;;;;;5117609;28;20272;-68
2022/06/30 11:21:24;;;;;;;6.50;4.30;;;29.80;99.90;;;;;;5099791;28;20191;-68
2022/06/30 11:23:51;;;;;;;4.13;3.70;;;30.10;99.90;;;;;;5115931;28;20176;-68
2022/06/30 11:29:11;;;;;;;5.60;3.88;;;30.00;99.90;;;;;;5116708;28;20175;-68
2022/06/30 11:31:43;;;;;;;4.47;3.63;;;29.80;99.90;;;;;;5116195;28;20622;-68
2022/06/30 11:34:12;;;;;;;4.22;3.53;;;29.50;99.90;;;;;;5116058;28;20169;-68
2022/06/30 11:36:43;;;;;;;4.00;2.90;;;29.40;99.90;;;;;;5115742;28;20768;-68
2022/06/30 11:39:14;;;;;;;7.78;3.95;;;29.10;99.90;;;;;;5118556;28;20527;-67
2022/06/30 11:41:55;;;;;;;5.35;3.17;;;29.30;99.90;;;;;;5116056;28;20267;-68
2022/06/30 11:44:31;;;;;;;4.55;3.20;;;29.80;99.90;;;;;;5118034;27;20180;-68
2022/06/30 11:47:05;;;;;;;3.83;2.70;;;30.10;99.90;;;;;;5116566;28;20196;-68
2022/06/30 11:49:51;;;;;;;5.07;3.22;;;30.20;99.90;;;;;;5115206;28;20660;-68
2022/06/30 11:52:26;;;;;;;4.60;2.85;;;30.20;99.90;;;;;;5115508;28;20590;-68
2022/06/30 11:55:12;;;;;;;4.10;2.47;;;30.70;99.90;;;;;;5115626;28;20186;-68
2022/06/30 11:57:42;;;;;;;3.60;2.67;;;31.30;99.90;;;;;;5115357;28;20574;-68
2022/06/30 12:00:13;;;;;;;3.33;2.50;;;31.50;99.90;;;;;;5115604;27;20680;-68
2022/06/30 12:02:44;;;;;;;3.35;2.78;;;31.50;99.90;;;;;;5115592;28;20245;-68
2022/06/30 12:05:14;;;;;;;4.78;3.00;;;31.30;99.90;;;;;;5115342;28;20247;-68
2022/06/30 12:07:45;;;;;;;4.38;2.95;;;31.20;99.90;;;;;;5115087;28;20295;-68
2022/06/30 12:10:21;;;;;;;3.40;2.80;;;31.60;99.90;;;;;;5114665;28;20653;-68
2022/06/30 12:12:51;;;;;;;4.00;2.83;;;31.90;99.90;;;;;;5115288;28;20176;-68
2022/06/30 12:15:22;;;;;;;3.92;2.80;;;32.00;99.90;;;;;;5114853;27;20551;-69
2022/06/30 12:17:57;;;;;;;5.18;3.10;;;32.00;99.90;;;;;;5116184;27;20719;-68
2022/06/30 12:20:27;;;;;;;3.55;2.80;;;31.80;99.90;;;;;;5114351;28;20192;-68
2022/06/30 12:22:55;;;;;;;4.93;3.20;;;31.50;99.90;;;;;;5098661;28;20184;-68
2022/06/30 12:25:21;;;;;;;5.72;3.30;;;30.90;99.90;;;;;;5097903;28;20183;-68
2022/06/30 12:27:48;;;;;;;3.83;3.00;;;30.30;99.90;;;;;;5116058;28;20203;-68
2022/06/30 12:30:29;;;;;;;4.93;3.25;;;29.80;99.90;;;;;;5114993;28;20180;-68
2022/06/30 12:33:08;;;;;;;3.47;2.90;;;29.50;99.90;;;;;;5116954;28;20159;-68
2022/06/30 12:35:36;;;;;;;6.07;3.20;;;29.50;99.90;;;;;;5115342;27;20184;-68
2022/06/30 12:38:14;;;;;;;4.00;2.88;;;29.80;99.90;;;;;;5115962;28;20200;-68
2022/06/30 12:40:42;;;;;;;3.33;3.00;;;30.40;99.90;;;;;;5114604;28;20694;-68
2022/06/30 12:43:11;;;;;;;3.58;2.80;;;31.00;99.90;;;;;;5114604;28;20176;-68
2022/06/30 12:46:00;;;;;;;3.65;2.95;;;31.50;99.90;;;;;;5114598;28;20173;-68
2022/06/30 12:48:54;;;;;;;5.07;3.30;;;32.00;99.90;;;;;;5115610;28;20185;-68
2022/06/30 12:51:32;;;;;;;3.53;3.08;;;32.20;99.90;;;;;;5114349;28;20267;-68
2022/06/30 12:54:05;;;;;;;6.82;3.17;;;32.40;99.90;;;;;;5114654;28;20207;-68
2022/06/30 12:56:35;;;;;;;3.70;3.20;;;32.40;99.90;;;;;;5114423;28;20200;-69
2022/06/30 12:59:10;;;;;;;5.50;3.03;;;32.10;99.90;;;;;;5114614;28;20567;-68
2022/06/30 13:01:38;;;;;;;4.68;2.92;;;32.10;99.90;;;;;;5114643;28;20190;-68